Time;durP1;ratioP1;P1;durP2;ratioP2;P2;SDS_P1;SDS_P2;PMS_P1;PMS_P2;Temp;Humidity;BMP_temperature;BMP_pressure;BME280_temperature;BME280_humidity;BME280_pressure;Samples;Min_cycle;Max_cycle;Signal;HPM_P1;HPM_P2
2024/01/26 00:00:25;;;;;;;21.10;20.20;;;10.40;99.90;;;;;;5038903;28;20987;-72
2024/01/26 00:02:53;;;;;;;22.10;21.20;;;10.50;99.90;;;;;;5039257;28;20471;-73
2024/01/26 00:05:20;;;;;;;21.50;20.60;;;10.50;99.90;;;;;;5040797;28;20462;-72
2024/01/26 00:07:47;;;;;;;21.00;20.17;;;10.50;99.90;;;;;;5043655;28;20461;-73
2024/01/26 00:10:15;;;;;;;22.20;21.30;;;10.50;99.90;;;;;;5037367;28;20461;-75
2024/01/26 00:12:42;;;;;;;22.60;21.70;;;10.50;99.90;;;;;;5043024;28;20488;-73
2024/01/26 00:15:09;;;;;;;22.17;21.27;;;10.60;99.90;;;;;;5043828;28;20452;-73
2024/01/26 00:17:36;;;;;;;22.63;21.63;;;10.60;99.90;;;;;;5037535;28;20487;-73
2024/01/26 00:20:06;;;;;;;22.00;21.10;;;10.60;99.90;;;;;;5045453;28;20554;-73
2024/01/26 00:22:33;;;;;;;21.47;20.57;;;10.60;99.90;;;;;;5035187;28;20502;-74
2024/01/26 00:25:00;;;;;;;21.47;20.57;;;10.60;99.90;;;;;;5042640;28;20507;-73
2024/01/26 00:27:28;;;;;;;21.70;20.80;;;10.60;99.90;;;;;;5041408;28;20563;-73
2024/01/26 00:29:55;;;;;;;21.50;20.60;;;10.60;99.90;;;;;;5041538;28;20463;-72
2024/01/26 00:32:21;;;;;;;21.97;21.07;;;10.50;99.90;;;;;;5044949;28;20495;-73
2024/01/26 00:34:50;;;;;;;22.53;21.63;;;10.50;99.90;;;;;;5042028;28;20594;-73
2024/01/26 00:37:18;;;;;;;22.60;21.60;;;10.60;99.90;;;;;;5043973;28;20469;-74
2024/01/26 00:39:45;;;;;;;22.73;21.73;;;10.60;99.90;;;;;;5042783;28;20479;-73
2024/01/26 00:42:12;;;;;;;22.77;21.77;;;10.60;99.90;;;;;;5041708;28;20506;-72
2024/01/26 00:44:39;;;;;;;22.77;21.77;;;10.60;99.90;;;;;;5041627;28;20466;-73
2024/01/26 00:47:06;;;;;;;23.20;22.20;;;10.60;99.90;;;;;;5038929;28;20533;-72
2024/01/26 00:49:33;;;;;;;22.00;21.10;;;10.70;99.90;;;;;;5041208;28;20941;-75
2024/01/26 00:51:59;;;;;;;21.43;20.53;;;10.60;99.90;;;;;;5041601;28;20488;-73
2024/01/26 00:54:28;;;;;;;21.47;20.57;;;10.60;99.90;;;;;;5039524;28;20472;-72
2024/01/26 00:56:56;;;;;;;20.57;19.67;;;10.60;99.90;;;;;;5042358;28;20967;-75
2024/01/26 00:59:23;;;;;;;20.97;20.07;;;10.60;99.90;;;;;;5040951;28;20521;-72
2024/01/26 01:01:50;;;;;;;21.50;20.60;;;10.70;99.90;;;;;;5036608;28;20473;-73
2024/01/26 01:04:17;;;;;;;22.97;21.97;;;10.60;99.90;;;;;;5043354;28;20957;-74
2024/01/26 01:06:44;;;;;;;22.07;21.17;;;10.60;99.90;;;;;;5038036;28;20565;-75
2024/01/26 01:09:10;;;;;;;22.23;21.33;;;10.60;99.90;;;;;;5042509;28;20463;-70
2024/01/26 01:11:38;;;;;;;22.17;21.27;;;10.60;99.90;;;;;;5041772;28;20466;-71
2024/01/26 01:14:05;;;;;;;22.83;21.83;;;10.50;99.90;;;;;;5038466;28;20460;-73
2024/01/26 01:16:34;;;;;;;22.30;21.40;;;10.50;99.90;;;;;;5047532;28;21128;-70
2024/01/26 01:19:01;;;;;;;23.30;22.30;;;10.60;99.90;;;;;;5045352;28;20468;-73
2024/01/26 01:21:28;;;;;;;22.80;21.80;;;10.60;99.90;;;;;;5048676;28;20580;-74
2024/01/26 01:23:56;;;;;;;22.83;21.83;;;10.70;99.90;;;;;;5042713;28;20456;-72
2024/01/26 01:26:24;;;;;;;23.23;22.23;;;10.60;99.90;;;;;;5043027;28;20522;-73
2024/01/26 01:28:52;;;;;;;22.80;21.80;;;10.50;99.90;;;;;;5045976;28;20464;-71
2024/01/26 01:31:20;;;;;;;21.80;20.80;;;10.60;99.90;;;;;;5043661;28;20455;-73
2024/01/26 01:33:47;;;;;;;23.40;22.30;;;10.50;99.90;;;;;;5042134;28;20464;-75
2024/01/26 01:36:14;;;;;;;22.30;21.30;;;10.60;99.90;;;;;;5046320;28;20479;-72
2024/01/26 01:38:41;;;;;;;22.10;21.20;;;10.50;99.90;;;;;;5040346;28;20981;-72
2024/01/26 01:41:08;;;;;;;22.00;21.10;;;10.60;99.90;;;;;;5040698;28;20464;-72
2024/01/26 01:43:35;;;;;;;22.40;21.43;;;10.50;99.90;;;;;;5043427;28;20464;-71
2024/01/26 01:46:03;;;;;;;21.70;20.80;;;10.60;99.90;;;;;;5042231;28;20470;-73
2024/01/26 01:48:30;;;;;;;22.90;21.90;;;10.50;99.90;;;;;;5045243;28;20464;-73
2024/01/26 01:50:58;;;;;;;21.60;20.70;;;10.50;99.90;;;;;;5045136;28;20459;-71
2024/01/26 01:53:26;;;;;;;22.60;21.70;;;10.50;99.90;;;;;;5047060;28;20557;-72
2024/01/26 01:55:53;;;;;;;22.20;21.30;;;10.50;99.90;;;;;;5045501;28;20460;-72
2024/01/26 01:58:22;;;;;;;22.53;21.63;;;10.40;99.90;;;;;;5040478;28;20488;-71
2024/01/26 02:00:50;;;;;;;23.03;22.13;;;10.40;99.90;;;;;;5040857;28;20463;-71
2024/01/26 02:03:19;;;;;;;23.07;22.13;;;10.50;99.90;;;;;;5042177;28;20453;-73
2024/01/26 02:05:46;;;;;;;22.77;21.80;;;10.50;99.90;;;;;;5043244;28;20794;-72
2024/01/26 02:08:14;;;;;;;24.03;23.03;;;10.60;99.90;;;;;;5050115;28;20495;-74
2024/01/26 02:10:41;;;;;;;23.87;22.87;;;10.50;99.90;;;;;;5045654;28;20452;-73
2024/01/26 02:13:08;;;;;;;23.67;22.67;;;10.50;99.90;;;;;;5040788;28;20526;-71
2024/01/26 02:15:35;;;;;;;23.50;22.50;;;10.50;99.90;;;;;;5047819;28;20462;-73
2024/01/26 02:18:02;;;;;;;24.47;23.37;;;10.60;99.90;;;;;;5043436;28;20469;-72
2024/01/26 02:20:30;;;;;;;23.80;22.80;;;10.60;99.90;;;;;;5043311;28;20457;-72
2024/01/26 02:22:56;;;;;;;23.27;22.27;;;10.60;99.90;;;;;;5040377;28;20476;-72
2024/01/26 02:25:25;;;;;;;23.43;22.43;;;10.60;99.90;;;;;;5040931;28;20470;-74
2024/01/26 02:27:52;;;;;;;22.77;21.77;;;10.50;99.90;;;;;;5042558;28;21062;-71
2024/01/26 02:30:20;;;;;;;23.80;22.80;;;10.60;99.90;;;;;;5041990;28;20465;-72
2024/01/26 02:32:47;;;;;;;23.70;22.70;;;10.50;99.90;;;;;;5045456;28;20477;-72
2024/01/26 02:35:14;;;;;;;23.83;22.83;;;10.50;99.90;;;;;;5047166;28;20477;-72
2024/01/26 02:37:41;;;;;;;23.93;22.93;;;10.50;99.90;;;;;;5042675;28;20449;-72
2024/01/26 02:40:10;;;;;;;24.40;23.30;;;10.40;99.90;;;;;;5042708;28;20494;-72
2024/01/26 02:42:38;;;;;;;23.97;22.97;;;10.50;99.90;;;;;;5043496;28;20462;-72
2024/01/26 02:45:06;;;;;;;23.57;22.57;;;10.50;99.90;;;;;;5045400;28;20865;-72
2024/01/26 02:47:33;;;;;;;25.00;23.90;;;10.50;99.90;;;;;;5042985;28;20490;-74
2024/01/26 02:50:00;;;;;;;24.70;23.60;;;10.50;99.90;;;;;;5039076;28;20557;-72
2024/01/26 02:52:27;;;;;;;24.30;23.20;;;10.50;99.90;;;;;;5041730;28;20488;-72
2024/01/26 02:54:54;;;;;;;24.07;23.00;;;10.50;99.90;;;;;;5040127;28;20464;-72
2024/01/26 02:57:21;;;;;;;24.90;23.80;;;10.50;99.90;;;;;;5046796;28;20463;-74
2024/01/26 02:59:49;;;;;;;24.77;23.67;;;10.50;99.90;;;;;;5044941;28;20555;-72
2024/01/26 03:02:16;;;;;;;24.83;23.73;;;10.50;99.90;;;;;;5040971;28;20494;-73
2024/01/26 03:04:43;;;;;;;24.37;23.27;;;10.50;99.90;;;;;;5042170;28;20833;-72
2024/01/26 03:07:10;;;;;;;25.60;24.40;;;10.50;99.90;;;;;;5042094;28;20555;-72
2024/01/26 03:09:37;;;;;;;23.67;22.67;;;10.50;99.90;;;;;;5039801;28;20468;-71
2024/01/26 03:12:05;;;;;;;23.83;22.83;;;10.50;99.90;;;;;;5042962;28;20476;-76
2024/01/26 03:14:30;;;;;;;25.23;24.03;;;10.50;99.90;;;;;;5040038;28;20474;-72
2024/01/26 03:16:58;;;;;;;24.90;23.70;;;10.50;99.90;;;;;;5033910;28;20475;-72
2024/01/26 03:19:25;;;;;;;24.07;22.97;;;10.50;99.90;;;;;;5031699;28;20194;-72
2024/01/26 03:21:53;;;;;;;23.33;22.23;;;10.50;99.90;;;;;;5040816;28;20462;-71
2024/01/26 03:24:19;;;;;;;24.50;23.30;;;10.50;99.90;;;;;;5046104;28;20457;-72
2024/01/26 03:26:46;;;;;;;24.60;23.40;;;10.50;99.90;;;;;;5044552;28;20571;-72
2024/01/26 03:29:13;;;;;;;24.57;23.40;;;10.40;99.90;;;;;;5041290;28;20532;-72
2024/01/26 03:31:40;;;;;;;24.57;23.37;;;10.50;99.90;;;;;;5042500;28;20461;-72
2024/01/26 03:34:09;;;;;;;23.47;22.37;;;10.50;99.90;;;;;;5040977;28;21234;-72
2024/01/26 03:36:36;;;;;;;24.67;23.47;;;10.50;99.90;;;;;;5041820;28;20473;-74
2024/01/26 03:39:04;;;;;;;24.87;23.67;;;10.50;99.90;;;;;;5039703;28;20484;-72
2024/01/26 03:41:31;;;;;;;23.37;22.37;;;10.50;99.90;;;;;;5042614;28;20488;-73
2024/01/26 03:43:58;;;;;;;22.90;21.90;;;10.50;99.90;;;;;;5041282;28;20801;-72
2024/01/26 03:46:25;;;;;;;23.90;22.80;;;10.50;99.90;;;;;;5042168;28;20485;-73
2024/01/26 03:48:52;;;;;;;23.07;22.07;;;10.50;99.90;;;;;;5038294;28;20544;-73
2024/01/26 03:51:21;;;;;;;22.40;21.40;;;10.50;99.90;;;;;;5037625;28;20452;-72
2024/01/26 03:53:48;;;;;;;23.07;22.07;;;10.50;99.90;;;;;;5039698;28;20467;-72
2024/01/26 03:56:15;;;;;;;23.57;22.47;;;10.50;99.90;;;;;;5045433;28;20655;-73
2024/01/26 03:58:44;;;;;;;24.00;22.90;;;10.50;99.90;;;;;;5041577;28;20524;-71
2024/01/26 04:01:11;;;;;;;23.60;22.50;;;10.50;99.90;;;;;;5044060;28;20467;-72
2024/01/26 04:03:37;;;;;;;22.43;21.43;;;10.50;99.90;;;;;;5043507;28;20526;-72
2024/01/26 04:06:08;;;;;;;22.77;21.77;;;10.50;99.90;;;;;;5038711;28;20477;-72
2024/01/26 04:08:36;;;;;;;22.77;21.77;;;10.50;99.90;;;;;;5042031;28;20481;-71
2024/01/26 04:11:03;;;;;;;22.20;21.20;;;10.50;99.90;;;;;;5039084;28;20470;-72
2024/01/26 04:13:30;;;;;;;20.60;19.73;;;10.50;99.90;;;;;;5041670;28;20456;-72
2024/01/26 04:15:57;;;;;;;20.77;19.87;;;10.50;99.90;;;;;;5044090;28;20467;-73
2024/01/26 04:18:24;;;;;;;20.83;19.93;;;10.50;99.90;;;;;;5038567;28;20467;-71
2024/01/26 04:20:51;;;;;;;20.27;19.47;;;10.50;99.90;;;;;;5043213;28;20965;-72
2024/01/26 04:23:18;;;;;;;19.17;18.37;;;10.50;99.90;;;;;;5043454;28;20475;-73
2024/01/26 04:25:46;;;;;;;19.27;18.47;;;10.50;99.90;;;;;;5040491;28;20463;-74
2024/01/26 04:28:12;;;;;;;18.90;18.10;;;10.50;99.90;;;;;;5041472;28;20592;-71
2024/01/26 04:30:42;;;;;;;18.33;17.63;;;10.50;99.90;;;;;;5041503;28;20464;-71
2024/01/26 04:33:09;;;;;;;18.40;17.70;;;10.50;99.90;;;;;;5042303;28;20502;-72
2024/01/26 04:35:36;;;;;;;18.20;17.50;;;10.60;99.90;;;;;;5042533;28;20469;-75
2024/01/26 04:38:05;;;;;;;17.37;16.67;;;10.50;99.90;;;;;;5036042;28;20498;-74
2024/01/26 04:40:32;;;;;;;16.37;15.77;;;10.60;99.90;;;;;;5043091;28;20467;-71
2024/01/26 04:43:01;;;;;;;16.03;15.43;;;10.60;99.90;;;;;;5044755;28;20562;-71
2024/01/26 04:45:28;;;;;;;14.90;14.40;;;10.60;99.90;;;;;;5040792;28;20464;-72
2024/01/26 04:47:55;;;;;;;15.23;14.73;;;10.60;99.90;;;;;;5035821;28;20511;-73
2024/01/26 04:50:22;;;;;;;14.70;14.20;;;10.60;99.90;;;;;;5042724;28;20487;-72
2024/01/26 04:52:49;;;;;;;13.70;13.30;;;10.70;99.90;;;;;;5041926;28;20911;-72
2024/01/26 04:55:17;;;;;;;13.40;13.00;;;10.70;99.90;;;;;;5039406;28;20531;-72
2024/01/26 04:57:44;;;;;;;13.00;12.60;;;10.60;99.90;;;;;;5043020;28;20470;-71
2024/01/26 05:00:13;;;;;;;13.40;13.00;;;10.70;99.90;;;;;;5041086;28;20525;-71
2024/01/26 05:02:40;;;;;;;13.10;12.70;;;10.70;99.90;;;;;;5039007;28;20459;-71
2024/01/26 05:05:07;;;;;;;13.50;13.10;;;10.70;99.90;;;;;;5040415;28;20490;-72
2024/01/26 05:07:34;;;;;;;13.33;12.93;;;10.60;99.90;;;;;;5043357;28;20490;-71
2024/01/26 05:10:00;;;;;;;13.47;13.07;;;10.60;99.90;;;;;;5039328;28;20471;-74
2024/01/26 05:12:27;;;;;;;13.90;13.40;;;10.60;99.90;;;;;;5041927;28;20468;-70
2024/01/26 05:14:53;;;;;;;13.10;12.70;;;10.50;99.90;;;;;;5042713;28;20474;-71
2024/01/26 05:17:21;;;;;;;12.70;12.30;;;10.50;99.90;;;;;;5037418;28;20465;-71
2024/01/26 05:19:48;;;;;;;12.73;12.33;;;10.50;99.90;;;;;;5041951;28;20215;-71
2024/01/26 05:22:15;;;;;;;12.50;12.10;;;10.40;99.90;;;;;;5041417;28;20572;-71
2024/01/26 05:24:42;;;;;;;12.20;11.90;;;10.40;99.90;;;;;;5044717;28;20463;-71
2024/01/26 05:27:09;;;;;;;11.60;11.30;;;10.40;99.90;;;;;;5042762;28;20853;-72
2024/01/26 05:29:35;;;;;;;11.23;10.93;;;10.30;99.90;;;;;;5039940;28;20508;-70
2024/01/26 05:32:02;;;;;;;11.30;11.00;;;10.40;99.90;;;;;;5043031;28;20467;-72
2024/01/26 05:34:30;;;;;;;10.60;10.40;;;10.30;99.90;;;;;;5040012;28;20470;-71
2024/01/26 05:36:57;;;;;;;9.70;9.50;;;10.30;99.90;;;;;;5040260;28;20475;-71
2024/01/26 05:39:24;;;;;;;10.03;9.83;;;10.30;99.90;;;;;;5036859;28;20464;-72
2024/01/26 05:41:51;;;;;;;9.73;9.53;;;10.30;99.90;;;;;;5038856;28;20494;-72
2024/01/26 05:44:18;;;;;;;9.70;9.50;;;10.30;99.90;;;;;;5040048;28;20456;-72
2024/01/26 05:46:45;;;;;;;9.73;9.53;;;10.20;99.90;;;;;;5038658;28;20851;-72
2024/01/26 05:49:12;;;;;;;9.20;9.00;;;10.20;99.90;;;;;;5036191;28;20495;-71
2024/01/26 05:51:40;;;;;;;9.13;8.93;;;10.30;99.90;;;;;;5040921;28;20460;-72
2024/01/26 05:54:07;;;;;;;9.20;9.00;;;10.30;99.90;;;;;;5044431;28;20561;-72
2024/01/26 05:56:34;;;;;;;9.47;9.27;;;10.30;99.90;;;;;;5041382;28;20547;-72
2024/01/26 05:59:01;;;;;;;9.10;8.90;;;10.20;99.90;;;;;;5038612;28;20460;-71
2024/01/26 06:01:29;;;;;;;9.10;8.90;;;10.20;99.90;;;;;;5037625;28;20465;-71
2024/01/26 06:03:55;;;;;;;9.13;8.93;;;10.30;99.90;;;;;;5042234;28;20470;-72
2024/01/26 06:06:23;;;;;;;9.53;9.33;;;10.30;99.90;;;;;;5042880;28;20474;-71
2024/01/26 06:08:51;;;;;;;9.27;9.07;;;10.30;99.90;;;;;;5045285;28;20540;-72
2024/01/26 06:11:20;;;;;;;9.10;8.90;;;10.40;99.90;;;;;;5043086;28;20453;-72
2024/01/26 06:13:47;;;;;;;9.70;9.50;;;10.50;99.90;;;;;;5047229;28;20461;-71
2024/01/26 06:16:14;;;;;;;9.27;9.07;;;10.50;99.90;;;;;;5043215;28;20815;-72
2024/01/26 06:18:41;;;;;;;9.83;9.63;;;10.50;99.90;;;;;;5042341;28;20515;-73
2024/01/26 06:21:09;;;;;;;9.63;9.43;;;10.50;99.90;;;;;;5045035;28;20484;-72
2024/01/26 06:23:36;;;;;;;9.77;9.57;;;10.50;99.90;;;;;;5042658;28;20800;-70
2024/01/26 06:26:04;;;;;;;9.53;9.33;;;10.60;99.90;;;;;;5039949;28;20456;-72
2024/01/26 06:28:31;;;;;;;9.37;9.17;;;10.60;99.90;;;;;;5041939;28;20501;-71
2024/01/26 06:30:58;;;;;;;8.53;8.43;;;10.70;99.90;;;;;;5038827;28;20472;-72
2024/01/26 06:33:25;;;;;;;8.43;8.33;;;10.70;99.90;;;;;;5043693;28;20464;-71
2024/01/26 06:35:52;;;;;;;8.60;8.50;;;10.70;99.90;;;;;;5047571;28;20459;-71
2024/01/26 06:38:20;;;;;;;8.37;8.27;;;10.80;99.90;;;;;;5040403;28;20464;-73
2024/01/26 06:40:48;;;;;;;7.87;7.77;;;10.80;99.90;;;;;;5038271;28;20456;-73
2024/01/26 06:43:16;;;;;;;7.97;7.87;;;10.80;99.90;;;;;;5040349;28;20479;-71
2024/01/26 06:45:44;;;;;;;12.23;11.93;;;10.80;99.90;;;;;;5039864;28;20577;-73
2024/01/26 06:48:11;;;;;;;13.07;12.67;;;10.90;99.90;;;;;;5041558;28;20468;-71
2024/01/26 06:50:38;;;;;;;12.00;11.70;;;10.90;99.90;;;;;;5047309;28;20480;-73
2024/01/26 06:53:06;;;;;;;11.90;11.60;;;10.90;99.90;;;;;;5040859;28;20573;-71
2024/01/26 06:55:32;;;;;;;11.23;10.93;;;10.80;99.90;;;;;;5039878;28;20464;-73
2024/01/26 06:57:59;;;;;;;10.70;10.50;;;10.80;99.90;;;;;;5043248;28;20474;-71
2024/01/26 07:00:29;;;;;;;10.70;10.50;;;10.90;99.90;;;;;;5040007;28;20468;-71
2024/01/26 07:02:56;;;;;;;9.43;9.23;;;10.90;99.90;;;;;;5040618;28;20458;-71
2024/01/26 07:05:23;;;;;;;8.83;8.70;;;10.90;99.90;;;;;;5041458;28;20969;-71
2024/01/26 07:07:49;;;;;;;9.17;8.97;;;10.90;99.90;;;;;;5040999;28;20452;-72
2024/01/26 07:10:16;;;;;;;8.87;8.77;;;10.90;99.90;;;;;;5045723;28;20467;-71
2024/01/26 07:12:43;;;;;;;9.47;9.27;;;10.90;99.90;;;;;;5046426;28;20461;-71
2024/01/26 07:15:11;;;;;;;11.60;11.30;;;11.00;99.90;;;;;;5041308;28;20461;-70
2024/01/26 07:17:39;;;;;;;13.03;12.63;;;11.00;99.90;;;;;;5046847;28;20452;-69
2024/01/26 07:20:07;;;;;;;13.47;13.07;;;10.90;99.90;;;;;;5038265;28;20851;-70
2024/01/26 07:22:34;;;;;;;13.87;13.47;;;10.90;99.90;;;;;;5040242;28;20467;-70
2024/01/26 07:25:09;;;;;;;14.07;13.67;;;10.90;99.90;;;;;;5039766;28;20584;-71
2024/01/26 07:27:36;;;;;;;16.97;16.27;;;10.90;99.90;;;;;;5042071;28;21026;-72
2024/01/26 07:30:05;;;;;;;17.53;16.83;;;10.90;99.90;;;;;;5042635;28;20496;-70
2024/01/26 07:32:34;;;;;;;18.67;17.87;;;10.90;99.90;;;;;;5044823;28;20548;-71
2024/01/26 07:35:02;;;;;;;18.47;17.67;;;10.90;99.90;;;;;;5045413;28;20488;-71
2024/01/26 07:37:29;;;;;;;18.33;17.53;;;10.80;99.90;;;;;;5037564;28;20478;-71
2024/01/26 07:39:56;;;;;;;19.10;18.30;;;10.80;99.90;;;;;;5042265;28;20536;-73
2024/01/26 07:42:22;;;;;;;19.10;18.30;;;10.80;99.90;;;;;;5032146;28;20465;-72
2024/01/26 07:44:49;;;;;;;18.83;18.13;;;10.70;99.90;;;;;;5038423;28;20473;-72
2024/01/26 07:47:16;;;;;;;19.27;18.47;;;10.70;99.90;;;;;;5044043;28;20498;-73
2024/01/26 07:49:43;;;;;;;18.70;18.00;;;10.80;99.90;;;;;;5042970;28;20505;-73
2024/01/26 07:52:11;;;;;;;17.93;17.23;;;10.80;99.90;;;;;;5044040;28;20976;-73
2024/01/26 07:54:38;;;;;;;18.53;17.83;;;10.80;99.90;;;;;;5046999;28;20477;-74
2024/01/26 07:57:05;;;;;;;18.27;17.57;;;10.80;99.90;;;;;;5049589;28;20485;-75
2024/01/26 07:59:32;;;;;;;18.50;17.80;;;10.80;99.90;;;;;;5045914;28;21202;-76
2024/01/26 08:01:59;;;;;;;18.47;17.77;;;10.80;99.90;;;;;;5034248;28;20521;-73
2024/01/26 08:04:26;;;;;;;18.10;17.50;;;10.80;99.90;;;;;;5046409;28;20465;-73
2024/01/26 08:06:52;;;;;;;18.40;17.70;;;10.80;99.90;;;;;;5049285;28;20471;-75
2024/01/26 08:09:21;;;;;;;17.70;17.10;;;10.90;99.90;;;;;;5047631;28;20493;-73
2024/01/26 08:11:48;;;;;;;18.47;17.77;;;10.90;99.90;;;;;;5048430;28;20478;-73
2024/01/26 08:14:14;;;;;;;18.30;17.60;;;10.90;99.90;;;;;;5043837;28;20465;-73
2024/01/26 08:16:41;;;;;;;18.80;18.10;;;10.90;99.90;;;;;;5048264;28;20940;-73
2024/01/26 08:19:08;;;;;;;18.20;17.53;;;10.90;99.90;;;;;;5042657;28;20489;-75
2024/01/26 08:21:35;;;;;;;17.60;17.00;;;10.90;99.90;;;;;;5050602;28;21029;-73
2024/01/26 08:24:02;;;;;;;17.73;17.13;;;10.90;99.90;;;;;;5047769;28;20562;-73
2024/01/26 08:26:30;;;;;;;17.63;17.03;;;10.90;99.90;;;;;;5046180;28;20462;-73
2024/01/26 08:28:57;;;;;;;17.37;16.77;;;10.90;99.90;;;;;;5049428;28;20486;-73
2024/01/26 08:31:24;;;;;;;17.50;16.90;;;10.90;99.90;;;;;;5043909;28;20459;-73
2024/01/26 08:33:51;;;;;;;16.80;16.20;;;11.00;99.90;;;;;;5046761;28;20566;-74
2024/01/26 08:36:18;;;;;;;17.13;16.53;;;10.90;99.90;;;;;;5050391;28;20864;-71
2024/01/26 08:38:44;;;;;;;17.23;16.63;;;11.00;99.90;;;;;;5044691;28;20468;-72
2024/01/26 08:41:11;;;;;;;17.70;17.10;;;11.00;99.90;;;;;;5045420;28;20468;-73
2024/01/26 08:43:39;;;;;;;17.47;16.87;;;11.10;99.90;;;;;;5045253;28;20661;-74
2024/01/26 08:46:06;;;;;;;17.97;17.27;;;11.00;99.90;;;;;;5042725;28;20511;-76
2024/01/26 08:48:33;;;;;;;17.30;16.70;;;11.10;99.90;;;;;;5045560;28;21499;-73
2024/01/26 08:51:00;;;;;;;17.30;16.70;;;11.10;99.90;;;;;;5043177;28;21027;-76
2024/01/26 08:53:26;;;;;;;17.33;16.73;;;11.10;99.90;;;;;;5050741;28;20478;-73
2024/01/26 08:55:53;;;;;;;17.40;16.80;;;11.10;99.90;;;;;;5045218;28;20490;-73
2024/01/26 08:58:21;;;;;;;17.00;16.40;;;11.10;99.90;;;;;;5045718;28;20468;-73
2024/01/26 09:00:50;;;;;;;18.00;17.30;;;11.10;99.90;;;;;;5042636;28;20467;-72
2024/01/26 09:03:17;;;;;;;16.70;16.10;;;11.10;99.90;;;;;;5047383;28;20515;-72
2024/01/26 09:05:44;;;;;;;16.80;16.20;;;11.10;99.90;;;;;;5051018;28;20452;-74
2024/01/26 09:08:11;;;;;;;16.57;15.97;;;11.10;99.90;;;;;;5049077;28;21048;-73
2024/01/26 09:10:38;;;;;;;16.80;16.20;;;11.10;99.90;;;;;;5044027;28;21094;-73
2024/01/26 09:13:05;;;;;;;16.73;16.13;;;11.00;99.90;;;;;;5047599;28;20460;-76
2024/01/26 09:15:32;;;;;;;17.10;16.50;;;11.00;99.90;;;;;;5047049;28;20459;-72
2024/01/26 09:18:01;;;;;;;17.27;16.67;;;11.10;99.90;;;;;;5044690;28;20467;-72
2024/01/26 09:20:28;;;;;;;17.80;17.10;;;11.10;99.90;;;;;;5046002;28;20556;-73
2024/01/26 09:22:56;;;;;;;16.80;16.20;;;11.10;99.90;;;;;;5048769;28;20559;-75
2024/01/26 09:25:23;;;;;;;17.07;16.47;;;11.10;99.90;;;;;;5046353;28;20473;-72
2024/01/26 09:27:50;;;;;;;16.93;16.33;;;11.20;99.90;;;;;;5047983;28;20819;-73
2024/01/26 09:30:17;;;;;;;17.30;16.70;;;11.20;99.90;;;;;;5041812;28;20510;-72
2024/01/26 09:32:44;;;;;;;17.87;17.17;;;11.30;99.90;;;;;;5046498;28;20604;-73
2024/01/26 09:35:14;;;;;;;17.13;16.53;;;11.30;99.90;;;;;;5047755;28;20463;-75
2024/01/26 09:37:41;;;;;;;18.70;18.00;;;11.40;99.90;;;;;;5046770;28;20467;-71
2024/01/26 09:40:11;;;;;;;17.80;17.10;;;11.40;99.90;;;;;;5047557;28;20994;-72
2024/01/26 09:42:39;;;;;;;17.20;16.60;;;11.40;99.90;;;;;;5038883;28;20468;-70
2024/01/26 09:45:08;;;;;;;17.43;16.73;;;11.50;99.90;;;;;;5055222;28;20461;-71
2024/01/26 09:47:36;;;;;;;17.00;16.40;;;11.40;99.90;;;;;;5048920;28;21211;-74
2024/01/26 09:50:04;;;;;;;17.47;16.87;;;11.50;99.90;;;;;;5047591;28;20523;-71
2024/01/26 09:52:35;;;;;;;17.03;16.43;;;11.50;99.90;;;;;;5049696;28;21067;-71
2024/01/26 09:55:04;;;;;;;17.50;16.90;;;11.50;99.90;;;;;;5048583;28;20730;-72
2024/01/26 09:57:33;;;;;;;16.23;15.73;;;11.50;99.90;;;;;;5050581;28;20817;-74
2024/01/26 10:00:00;;;;;;;17.50;16.90;;;11.50;99.90;;;;;;5053753;28;20477;-75
2024/01/26 10:02:27;;;;;;;17.40;16.80;;;11.50;99.90;;;;;;5050846;28;20473;-72
2024/01/26 10:04:54;;;;;;;16.47;15.87;;;11.50;99.90;;;;;;5054954;28;21055;-72
2024/01/26 10:07:21;;;;;;;16.60;16.00;;;11.50;99.90;;;;;;5055239;28;20503;-72
2024/01/26 10:09:49;;;;;;;16.83;16.23;;;11.50;99.90;;;;;;5051672;28;20595;-74
2024/01/26 10:12:16;;;;;;;16.27;15.77;;;11.40;99.90;;;;;;5044874;28;20463;-72
2024/01/26 10:14:43;;;;;;;16.57;15.97;;;11.50;99.90;;;;;;5056105;28;20471;-71
2024/01/26 10:17:16;;;;;;;16.60;16.00;;;11.50;99.90;;;;;;5052783;28;20527;-74
2024/01/26 10:19:43;;;;;;;16.87;16.27;;;11.50;99.90;;;;;;5054607;28;20478;-75
2024/01/26 10:22:11;;;;;;;16.33;15.73;;;11.50;99.90;;;;;;5052905;28;20531;-71
2024/01/26 10:24:37;;;;;;;16.97;16.37;;;11.50;99.90;;;;;;5054360;28;20969;-73
2024/01/26 10:27:06;;;;;;;16.90;16.30;;;11.50;99.90;;;;;;5037343;28;20479;-72
2024/01/26 10:29:34;;;;;;;16.77;16.17;;;11.40;99.90;;;;;;5047282;28;21100;-72
2024/01/26 10:32:02;;;;;;;16.63;16.03;;;11.50;99.90;;;;;;5044793;28;20560;-74
2024/01/26 10:34:33;;;;;;;16.97;16.37;;;11.50;99.90;;;;;;5053878;28;20588;-72
2024/01/26 10:37:05;;;;;;;18.27;17.57;;;11.50;99.90;;;;;;5049483;28;20489;-73
2024/01/26 10:39:38;;;;;;;18.40;17.70;;;11.50;99.90;;;;;;5050088;28;20462;-73
2024/01/26 10:42:07;;;;;;;18.10;17.40;;;11.50;99.90;;;;;;5049446;28;20543;-72
2024/01/26 10:44:37;;;;;;;10.43;10.23;;;11.20;99.90;;;;;;5049309;28;20989;-74
2024/01/26 10:47:05;;;;;;;7.40;7.30;;;10.90;99.90;;;;;;5051202;28;21076;-74
2024/01/26 10:49:34;;;;;;;7.57;7.47;;;10.60;99.90;;;;;;5048611;28;20503;-74
2024/01/26 10:52:02;;;;;;;6.90;6.80;;;10.40;99.90;;;;;;5050440;28;20595;-74
2024/01/26 10:54:29;;;;;;;6.70;6.60;;;10.30;99.90;;;;;;5052824;28;20818;-73
2024/01/26 10:56:56;;;;;;;6.00;5.90;;;10.20;99.90;;;;;;5052353;28;20506;-73
2024/01/26 10:59:25;;;;;;;8.20;8.10;;;10.10;99.90;;;;;;5051528;28;20577;-73
2024/01/26 11:01:54;;;;;;;9.00;8.90;;;9.70;99.90;;;;;;5050376;28;20474;-74
2024/01/26 11:04:21;;;;;;;9.23;9.03;;;9.60;99.90;;;;;;5042368;28;20471;-73
2024/01/26 11:06:48;;;;;;;10.93;10.73;;;9.60;99.90;;;;;;5051907;28;20498;-73
2024/01/26 11:09:19;;;;;;;12.03;11.73;;;9.50;99.90;;;;;;5052616;28;20488;-76
2024/01/26 11:11:52;;;;;;;13.23;12.83;;;9.50;99.90;;;;;;5051611;28;20476;-73
2024/01/26 11:14:26;;;;;;;14.30;13.80;;;9.70;99.90;;;;;;5055296;28;20468;-72
2024/01/26 11:17:09;;;;;;;14.77;14.27;;;9.60;99.90;;;;;;5050474;28;20481;-72
2024/01/26 11:19:35;;;;;;;16.30;15.70;;;9.60;99.90;;;;;;5047588;28;20507;-72
2024/01/26 11:22:06;;;;;;;16.50;15.80;;;9.70;99.90;;;;;;5052823;28;20469;-72
2024/01/26 11:24:34;;;;;;;17.23;16.53;;;9.60;99.90;;;;;;5047320;28;20463;-72
2024/01/26 11:27:03;;;;;;;16.90;16.20;;;9.80;99.90;;;;;;5050953;28;20470;-75
2024/01/26 11:29:34;;;;;;;17.10;16.33;;;10.00;99.90;;;;;;5053594;28;20496;-70
2024/01/26 11:32:13;;;;;;;17.00;16.20;;;10.20;99.90;;;;;;5047507;28;20546;-70
2024/01/26 11:34:40;;;;;;;16.90;16.10;;;10.40;99.90;;;;;;5043951;28;20469;-71
2024/01/26 11:37:10;;;;;;;17.03;16.23;;;10.50;99.90;;;;;;5050420;28;20466;-71
2024/01/26 11:39:38;;;;;;;17.30;16.50;;;10.40;99.90;;;;;;5054417;28;21294;-71
2024/01/26 11:42:09;;;;;;;17.80;16.90;;;10.30;99.90;;;;;;5050205;28;20463;-71
2024/01/26 11:44:40;;;;;;;16.80;16.00;;;10.30;99.90;;;;;;5049777;28;20506;-71
2024/01/26 11:47:09;;;;;;;16.70;15.90;;;10.30;99.90;;;;;;5051725;28;20494;-74
2024/01/26 11:49:36;;;;;;;17.80;16.90;;;10.20;99.90;;;;;;5048366;28;20492;-70
2024/01/26 11:52:04;;;;;;;18.30;17.40;;;10.00;99.90;;;;;;5051742;28;20500;-71
2024/01/26 11:54:33;;;;;;;19.23;18.23;;;10.00;99.90;;;;;;5052447;28;20474;-70
2024/01/26 11:57:01;;;;;;;20.53;19.43;;;9.90;99.90;;;;;;5049275;28;20482;-71
2024/01/26 11:59:43;;;;;;;21.53;20.33;;;9.90;99.90;;;;;;5071376;27;20597;-73
2024/01/26 12:02:11;;;;;;;21.90;20.70;;;9.80;99.90;;;;;;5065425;28;20453;-71
2024/01/26 12:04:38;;;;;;;20.27;19.17;;;9.70;99.90;;;;;;5067726;28;20469;-71
2024/01/26 12:07:05;;;;;;;21.37;20.27;;;9.70;99.90;;;;;;5065813;28;20472;-69
2024/01/26 12:09:34;;;;;;;21.60;20.50;;;10.10;99.90;;;;;;5070596;28;20885;-70
2024/01/26 12:12:01;;;;;;;21.73;20.63;;;10.50;99.90;;;;;;5068692;28;20561;-70
2024/01/26 12:14:28;;;;;;;21.10;20.10;;;10.70;99.90;;;;;;5065051;28;20478;-72
2024/01/26 12:16:57;;;;;;;15.50;14.90;;;10.80;99.90;;;;;;5070314;28;20867;-70
2024/01/26 12:19:23;;;;;;;15.93;15.33;;;10.70;99.90;;;;;;5063942;28;20492;-72
2024/01/26 12:21:53;;;;;;;15.47;14.87;;;10.70;99.90;;;;;;5065981;28;20462;-70
2024/01/26 12:24:22;;;;;;;16.43;15.73;;;10.70;99.90;;;;;;5069427;28;20492;-72
2024/01/26 12:26:50;;;;;;;15.60;15.00;;;10.70;99.90;;;;;;5065448;28;21132;-72
2024/01/26 12:29:19;;;;;;;16.20;15.50;;;10.90;99.90;;;;;;5068121;28;20473;-71
2024/01/26 12:31:46;;;;;;;15.43;14.83;;;10.90;99.90;;;;;;5062162;28;20517;-71